sensor_id;sensor_type;location;lat;lon;timestamp;P1;durP1;ratioP1;P2;durP2;ratioP2
7487;SDS011;3785;52.260;4.728;2024-01-30T00:01:16;13.10;;;6.80;;
7487;SDS011;3785;52.260;4.728;2024-01-30T00:04:36;11.23;;;7.25;;
7487;SDS011;3785;52.260;4.728;2024-01-30T00:07:57;13.23;;;7.95;;
7487;SDS011;3785;52.260;4.728;2024-01-30T00:11:17;11.68;;;7.55;;
7487;SDS011;3785;52.260;4.728;2024-01-30T00:14:38;13.52;;;7.40;;
7487;SDS011;3785;52.260;4.728;2024-01-30T00:18:01;11.00;;;6.82;;
7487;SDS011;3785;52.260;4.728;2024-01-30T00:21:21;11.77;;;6.93;;
7487;SDS011;3785;52.260;4.728;2024-01-30T00:24:42;12.18;;;7.00;;
7487;SDS011;3785;52.260;4.728;2024-01-30T00:28:02;10.50;;;6.82;;
7487;SDS011;3785;52.260;4.728;2024-01-30T00:31:23;13.73;;;7.47;;
7487;SDS011;3785;52.260;4.728;2024-01-30T00:34:44;11.35;;;7.40;;
7487;SDS011;3785;52.260;4.728;2024-01-30T00:38:04;9.50;;;6.70;;
7487;SDS011;3785;52.260;4.728;2024-01-30T00:41:27;12.55;;;6.70;;
7487;SDS011;3785;52.260;4.728;2024-01-30T00:44:48;10.75;;;7.47;;
7487;SDS011;3785;52.260;4.728;2024-01-30T00:48:09;10.07;;;6.88;;
7487;SDS011;3785;52.260;4.728;2024-01-30T00:51:29;12.85;;;7.35;;
7487;SDS011;3785;52.260;4.728;2024-01-30T00:54:50;11.13;;;7.00;;
7487;SDS011;3785;52.260;4.728;2024-01-30T00:58:10;12.90;;;7.60;;
7487;SDS011;3785;52.260;4.728;2024-01-30T01:01:31;13.73;;;7.68;;
7487;SDS011;3785;52.260;4.728;2024-01-30T01:04:52;12.77;;;7.68;;
7487;SDS011;3785;52.260;4.728;2024-01-30T01:08:12;13.30;;;8.05;;
7487;SDS011;3785;52.260;4.728;2024-01-30T01:11:35;11.88;;;6.65;;
7487;SDS011;3785;52.260;4.728;2024-01-30T01:14:55;11.30;;;7.22;;
7487;SDS011;3785;52.260;4.728;2024-01-30T01:18:16;12.32;;;7.63;;
7487;SDS011;3785;52.260;4.728;2024-01-30T01:21:37;9.80;;;7.07;;
7487;SDS011;3785;52.260;4.728;2024-01-30T01:24:58;11.43;;;7.53;;
7487;SDS011;3785;52.260;4.728;2024-01-30T01:28:19;10.95;;;7.25;;
7487;SDS011;3785;52.260;4.728;2024-01-30T01:31:39;10.30;;;7.25;;
7487;SDS011;3785;52.260;4.728;2024-01-30T01:35:03;11.00;;;7.68;;
7487;SDS011;3785;52.260;4.728;2024-01-30T01:38:25;10.63;;;7.00;;
7487;SDS011;3785;52.260;4.728;2024-01-30T01:41:46;10.98;;;6.75;;
7487;SDS011;3785;52.260;4.728;2024-01-30T01:45:06;10.70;;;7.25;;
7487;SDS011;3785;52.260;4.728;2024-01-30T01:48:27;9.57;;;6.85;;
7487;SDS011;3785;52.260;4.728;2024-01-30T01:51:48;13.07;;;7.13;;
7487;SDS011;3785;52.260;4.728;2024-01-30T01:55:09;13.85;;;7.03;;
7487;SDS011;3785;52.260;4.728;2024-01-30T01:58:30;10.35;;;6.70;;
7487;SDS011;3785;52.260;4.728;2024-01-30T02:01:51;13.15;;;6.93;;
7487;SDS011;3785;52.260;4.728;2024-01-30T02:05:13;11.93;;;7.28;;
7487;SDS011;3785;52.260;4.728;2024-01-30T02:08:37;9.90;;;6.25;;
7487;SDS011;3785;52.260;4.728;2024-01-30T02:11:57;9.55;;;6.32;;
7487;SDS011;3785;52.260;4.728;2024-01-30T02:15:18;12.23;;;6.57;;
7487;SDS011;3785;52.260;4.728;2024-01-30T02:18:39;10.02;;;6.43;;
7487;SDS011;3785;52.260;4.728;2024-01-30T02:22:05;10.00;;;6.22;;
7487;SDS011;3785;52.260;4.728;2024-01-30T02:25:38;13.60;;;7.47;;
7487;SDS011;3785;52.260;4.728;2024-01-30T02:29:04;9.82;;;6.57;;
7487;SDS011;3785;52.260;4.728;2024-01-30T02:32:26;12.40;;;6.80;;
7487;SDS011;3785;52.260;4.728;2024-01-30T02:35:46;8.80;;;5.95;;
7487;SDS011;3785;52.260;4.728;2024-01-30T02:39:07;10.25;;;5.85;;
7487;SDS011;3785;52.260;4.728;2024-01-30T02:42:28;9.85;;;6.30;;
7487;SDS011;3785;52.260;4.728;2024-01-30T02:45:48;11.25;;;6.60;;
7487;SDS011;3785;52.260;4.728;2024-01-30T02:49:09;10.25;;;6.53;;
7487;SDS011;3785;52.260;4.728;2024-01-30T02:52:29;9.38;;;5.97;;
7487;SDS011;3785;52.260;4.728;2024-01-30T02:55:50;11.18;;;6.65;;
7487;SDS011;3785;52.260;4.728;2024-01-30T02:59:10;9.88;;;6.22;;
7487;SDS011;3785;52.260;4.728;2024-01-30T03:02:32;9.23;;;6.00;;
7487;SDS011;3785;52.260;4.728;2024-01-30T03:05:53;9.77;;;6.13;;
7487;SDS011;3785;52.260;4.728;2024-01-30T03:09:15;8.73;;;6.00;;
7487;SDS011;3785;52.260;4.728;2024-01-30T03:12:36;8.57;;;6.30;;
7487;SDS011;3785;52.260;4.728;2024-01-30T03:15:57;10.27;;;6.15;;
7487;SDS011;3785;52.260;4.728;2024-01-30T03:19:17;11.05;;;6.28;;
7487;SDS011;3785;52.260;4.728;2024-01-30T03:22:38;10.00;;;6.03;;
7487;SDS011;3785;52.260;4.728;2024-01-30T03:25:59;10.20;;;5.45;;
7487;SDS011;3785;52.260;4.728;2024-01-30T03:29:20;9.48;;;5.38;;
7487;SDS011;3785;52.260;4.728;2024-01-30T03:32:40;10.32;;;6.65;;
7487;SDS011;3785;52.260;4.728;2024-01-30T03:36:04;8.02;;;5.05;;
7487;SDS011;3785;52.260;4.728;2024-01-30T03:39:25;12.25;;;5.63;;
7487;SDS011;3785;52.260;4.728;2024-01-30T03:42:46;8.20;;;4.93;;
7487;SDS011;3785;52.260;4.728;2024-01-30T03:46:06;13.60;;;6.15;;
7487;SDS011;3785;52.260;4.728;2024-01-30T03:49:27;10.73;;;5.80;;
7487;SDS011;3785;52.260;4.728;2024-01-30T03:52:48;10.80;;;5.30;;
7487;SDS011;3785;52.260;4.728;2024-01-30T03:56:09;10.55;;;6.25;;
7487;SDS011;3785;52.260;4.728;2024-01-30T03:59:29;10.93;;;6.50;;
7487;SDS011;3785;52.260;4.728;2024-01-30T04:02:50;8.85;;;5.88;;
7487;SDS011;3785;52.260;4.728;2024-01-30T04:06:13;10.60;;;5.80;;
7487;SDS011;3785;52.260;4.728;2024-01-30T04:09:34;9.27;;;5.57;;
7487;SDS011;3785;52.260;4.728;2024-01-30T04:12:54;10.15;;;6.15;;
7487;SDS011;3785;52.260;4.728;2024-01-30T04:16:19;10.77;;;6.13;;
7487;SDS011;3785;52.260;4.728;2024-01-30T04:19:41;10.05;;;6.00;;
7487;SDS011;3785;52.260;4.728;2024-01-30T04:23:01;9.02;;;5.78;;
7487;SDS011;3785;52.260;4.728;2024-01-30T04:26:22;8.40;;;5.43;;
7487;SDS011;3785;52.260;4.728;2024-01-30T04:29:43;8.52;;;5.78;;
7487;SDS011;3785;52.260;4.728;2024-01-30T04:33:04;9.32;;;6.45;;
7487;SDS011;3785;52.260;4.728;2024-01-30T04:36:25;10.23;;;6.75;;
7487;SDS011;3785;52.260;4.728;2024-01-30T04:39:45;8.68;;;5.93;;
7487;SDS011;3785;52.260;4.728;2024-01-30T04:43:06;9.50;;;6.05;;
7487;SDS011;3785;52.260;4.728;2024-01-30T04:46:26;9.93;;;6.38;;
7487;SDS011;3785;52.260;4.728;2024-01-30T04:49:48;10.57;;;5.88;;
7487;SDS011;3785;52.260;4.728;2024-01-30T04:53:08;9.35;;;5.05;;
7487;SDS011;3785;52.260;4.728;2024-01-30T04:56:30;9.20;;;5.63;;
7487;SDS011;3785;52.260;4.728;2024-01-30T04:59:51;9.00;;;5.88;;
7487;SDS011;3785;52.260;4.728;2024-01-30T05:03:12;8.82;;;5.85;;
7487;SDS011;3785;52.260;4.728;2024-01-30T05:06:32;10.13;;;5.93;;
7487;SDS011;3785;52.260;4.728;2024-01-30T05:09:53;10.85;;;5.55;;
7487;SDS011;3785;52.260;4.728;2024-01-30T05:13:14;8.77;;;5.25;;
7487;SDS011;3785;52.260;4.728;2024-01-30T05:16:35;9.60;;;5.97;;
7487;SDS011;3785;52.260;4.728;2024-01-30T05:19:55;10.43;;;6.22;;
7487;SDS011;3785;52.260;4.728;2024-01-30T05:23:16;10.95;;;5.60;;
7487;SDS011;3785;52.260;4.728;2024-01-30T05:26:37;11.32;;;5.85;;
7487;SDS011;3785;52.260;4.728;2024-01-30T05:29:57;9.18;;;5.03;;
7487;SDS011;3785;52.260;4.728;2024-01-30T05:33:18;9.25;;;5.63;;
7487;SDS011;3785;52.260;4.728;2024-01-30T05:36:38;12.80;;;6.53;;
7487;SDS011;3785;52.260;4.728;2024-01-30T05:39:59;9.95;;;5.38;;
7487;SDS011;3785;52.260;4.728;2024-01-30T05:43:19;10.95;;;6.05;;
7487;SDS011;3785;52.260;4.728;2024-01-30T05:46:40;10.32;;;5.88;;
7487;SDS011;3785;52.260;4.728;2024-01-30T05:50:01;8.32;;;5.57;;
7487;SDS011;3785;52.260;4.728;2024-01-30T05:53:21;9.15;;;5.78;;
7487;SDS011;3785;52.260;4.728;2024-01-30T05:56:42;9.13;;;5.97;;
7487;SDS011;3785;52.260;4.728;2024-01-30T06:00:03;8.40;;;5.30;;
7487;SDS011;3785;52.260;4.728;2024-01-30T06:03:25;8.73;;;5.75;;
7487;SDS011;3785;52.260;4.728;2024-01-30T06:06:45;10.43;;;5.78;;
7487;SDS011;3785;52.260;4.728;2024-01-30T06:10:06;8.35;;;5.60;;
7487;SDS011;3785;52.260;4.728;2024-01-30T06:13:28;9.60;;;5.80;;
7487;SDS011;3785;52.260;4.728;2024-01-30T06:16:51;8.48;;;5.90;;
7487;SDS011;3785;52.260;4.728;2024-01-30T06:20:12;11.98;;;5.38;;
7487;SDS011;3785;52.260;4.728;2024-01-30T06:23:33;11.77;;;6.38;;
7487;SDS011;3785;52.260;4.728;2024-01-30T06:26:53;10.35;;;6.43;;
7487;SDS011;3785;52.260;4.728;2024-01-30T06:30:14;8.45;;;5.75;;
7487;SDS011;3785;52.260;4.728;2024-01-30T06:33:35;7.82;;;5.25;;
7487;SDS011;3785;52.260;4.728;2024-01-30T06:36:56;8.85;;;5.82;;
7487;SDS011;3785;52.260;4.728;2024-01-30T06:40:16;10.45;;;5.88;;
7487;SDS011;3785;52.260;4.728;2024-01-30T06:43:37;9.48;;;6.00;;
7487;SDS011;3785;52.260;4.728;2024-01-30T06:46:57;8.48;;;5.25;;
7487;SDS011;3785;52.260;4.728;2024-01-30T06:50:18;10.18;;;6.25;;
7487;SDS011;3785;52.260;4.728;2024-01-30T06:53:39;10.77;;;5.75;;
7487;SDS011;3785;52.260;4.728;2024-01-30T06:56:59;8.63;;;5.68;;
7487;SDS011;3785;52.260;4.728;2024-01-30T07:00:20;10.43;;;5.45;;
7487;SDS011;3785;52.260;4.728;2024-01-30T07:03:41;10.05;;;5.90;;
7487;SDS011;3785;52.260;4.728;2024-01-30T07:07:03;9.82;;;6.10;;
7487;SDS011;3785;52.260;4.728;2024-01-30T07:10:24;9.63;;;5.72;;
7487;SDS011;3785;52.260;4.728;2024-01-30T07:13:45;10.90;;;5.85;;
7487;SDS011;3785;52.260;4.728;2024-01-30T07:17:06;8.93;;;5.55;;
7487;SDS011;3785;52.260;4.728;2024-01-30T07:20:27;9.30;;;5.45;;
7487;SDS011;3785;52.260;4.728;2024-01-30T07:23:48;9.43;;;5.85;;
7487;SDS011;3785;52.260;4.728;2024-01-30T07:27:08;10.57;;;6.18;;
7487;SDS011;3785;52.260;4.728;2024-01-30T07:30:29;12.60;;;5.95;;
7487;SDS011;3785;52.260;4.728;2024-01-30T07:33:50;9.93;;;5.45;;
7487;SDS011;3785;52.260;4.728;2024-01-30T07:37:10;10.68;;;6.03;;
7487;SDS011;3785;52.260;4.728;2024-01-30T07:40:35;8.75;;;5.47;;
7487;SDS011;3785;52.260;4.728;2024-01-30T07:43:56;7.13;;;5.18;;
7487;SDS011;3785;52.260;4.728;2024-01-30T07:47:16;7.75;;;5.03;;
7487;SDS011;3785;52.260;4.728;2024-01-30T07:50:37;9.23;;;5.50;;
7487;SDS011;3785;52.260;4.728;2024-01-30T07:53:57;9.55;;;5.13;;
7487;SDS011;3785;52.260;4.728;2024-01-30T07:57:18;8.93;;;5.40;;
7487;SDS011;3785;52.260;4.728;2024-01-30T08:00:39;8.30;;;5.45;;
7487;SDS011;3785;52.260;4.728;2024-01-30T08:03:59;8.75;;;5.38;;
7487;SDS011;3785;52.260;4.728;2024-01-30T08:07:20;11.18;;;5.35;;
7487;SDS011;3785;52.260;4.728;2024-01-30T08:10:42;9.00;;;5.65;;
7487;SDS011;3785;52.260;4.728;2024-01-30T08:14:03;8.57;;;4.75;;
7487;SDS011;3785;52.260;4.728;2024-01-30T08:17:23;9.23;;;5.07;;
7487;SDS011;3785;52.260;4.728;2024-01-30T08:20:44;12.18;;;5.75;;
7487;SDS011;3785;52.260;4.728;2024-01-30T08:24:05;9.75;;;5.32;;
7487;SDS011;3785;52.260;4.728;2024-01-30T08:27:26;7.38;;;4.93;;
7487;SDS011;3785;52.260;4.728;2024-01-30T08:30:46;7.85;;;4.65;;
7487;SDS011;3785;52.260;4.728;2024-01-30T08:34:07;10.15;;;5.70;;
7487;SDS011;3785;52.260;4.728;2024-01-30T08:37:28;10.05;;;5.25;;
7487;SDS011;3785;52.260;4.728;2024-01-30T08:40:49;11.18;;;5.25;;
7487;SDS011;3785;52.260;4.728;2024-01-30T08:44:09;10.55;;;5.63;;
7487;SDS011;3785;52.260;4.728;2024-01-30T08:47:31;9.95;;;5.88;;
7487;SDS011;3785;52.260;4.728;2024-01-30T08:50:53;12.93;;;6.35;;
7487;SDS011;3785;52.260;4.728;2024-01-30T08:54:14;11.05;;;5.70;;
7487;SDS011;3785;52.260;4.728;2024-01-30T08:57:34;11.10;;;6.30;;
7487;SDS011;3785;52.260;4.728;2024-01-30T09:00:55;11.85;;;6.25;;
7487;SDS011;3785;52.260;4.728;2024-01-30T09:04:15;10.48;;;6.65;;
7487;SDS011;3785;52.260;4.728;2024-01-30T09:07:36;11.23;;;6.30;;
7487;SDS011;3785;52.260;4.728;2024-01-30T09:10:56;11.07;;;5.82;;
7487;SDS011;3785;52.260;4.728;2024-01-30T09:14:17;11.23;;;6.63;;
7487;SDS011;3785;52.260;4.728;2024-01-30T09:17:38;9.45;;;6.22;;
7487;SDS011;3785;52.260;4.728;2024-01-30T09:20:59;11.85;;;6.50;;
7487;SDS011;3785;52.260;4.728;2024-01-30T09:24:19;14.18;;;7.05;;
7487;SDS011;3785;52.260;4.728;2024-01-30T09:27:40;11.15;;;6.35;;
7487;SDS011;3785;52.260;4.728;2024-01-30T09:31:00;11.18;;;6.72;;
7487;SDS011;3785;52.260;4.728;2024-01-30T09:34:21;10.27;;;6.68;;
7487;SDS011;3785;52.260;4.728;2024-01-30T09:37:42;15.70;;;7.38;;
7487;SDS011;3785;52.260;4.728;2024-01-30T09:41:03;10.07;;;6.32;;
7487;SDS011;3785;52.260;4.728;2024-01-30T09:44:29;12.27;;;6.18;;
7487;SDS011;3785;52.260;4.728;2024-01-30T09:47:50;7.45;;;5.50;;
7487;SDS011;3785;52.260;4.728;2024-01-30T09:51:11;6.05;;;4.43;;
7487;SDS011;3785;52.260;4.728;2024-01-30T09:54:34;5.65;;;3.45;;
7487;SDS011;3785;52.260;4.728;2024-01-30T09:57:56;5.57;;;3.13;;
7487;SDS011;3785;52.260;4.728;2024-01-30T10:01:17;5.50;;;2.85;;
7487;SDS011;3785;52.260;4.728;2024-01-30T10:04:38;3.40;;;1.80;;
7487;SDS011;3785;52.260;4.728;2024-01-30T10:07:59;2.97;;;1.63;;
7487;SDS011;3785;52.260;4.728;2024-01-30T10:11:20;4.53;;;1.55;;
7487;SDS011;3785;52.260;4.728;2024-01-30T10:14:41;3.10;;;1.38;;
7487;SDS011;3785;52.260;4.728;2024-01-30T10:18:02;3.38;;;0.93;;
7487;SDS011;3785;52.260;4.728;2024-01-30T10:21:23;2.33;;;1.20;;
7487;SDS011;3785;52.260;4.728;2024-01-30T10:24:44;1.67;;;0.82;;
7487;SDS011;3785;52.260;4.728;2024-01-30T10:28:05;1.35;;;0.70;;
7487;SDS011;3785;52.260;4.728;2024-01-30T10:31:26;2.50;;;0.70;;
7487;SDS011;3785;52.260;4.728;2024-01-30T10:34:46;2.50;;;0.75;;
7487;SDS011;3785;52.260;4.728;2024-01-30T10:38:07;1.35;;;0.60;;
7487;SDS011;3785;52.260;4.728;2024-01-30T10:41:30;4.18;;;0.93;;
7487;SDS011;3785;52.260;4.728;2024-01-30T10:48:27;1.67;;;0.70;;
7487;SDS011;3785;52.260;4.728;2024-01-30T10:51:50;3.55;;;0.60;;
7487;SDS011;3785;52.260;4.728;2024-01-30T10:55:11;1.50;;;0.63;;
7487;SDS011;3785;52.260;4.728;2024-01-30T10:58:32;0.93;;;0.50;;
7487;SDS011;3785;52.260;4.728;2024-01-30T11:01:53;0.88;;;0.52;;
7487;SDS011;3785;52.260;4.728;2024-01-30T11:05:14;1.58;;;0.50;;
7487;SDS011;3785;52.260;4.728;2024-01-30T11:08:35;1.92;;;0.40;;
7487;SDS011;3785;52.260;4.728;2024-01-30T11:11:57;0.60;;;0.30;;
7487;SDS011;3785;52.260;4.728;2024-01-30T11:15:21;2.65;;;0.70;;
7487;SDS011;3785;52.260;4.728;2024-01-30T11:18:49;2.50;;;0.60;;
7487;SDS011;3785;52.260;4.728;2024-01-30T11:22:10;4.05;;;0.75;;
7487;SDS011;3785;52.260;4.728;2024-01-30T11:25:31;0.98;;;0.45;;
7487;SDS011;3785;52.260;4.728;2024-01-30T11:28:52;4.32;;;0.80;;
7487;SDS011;3785;52.260;4.728;2024-01-30T11:32:21;2.72;;;0.75;;
7487;SDS011;3785;52.260;4.728;2024-01-30T11:35:44;0.65;;;0.40;;
7487;SDS011;3785;52.260;4.728;2024-01-30T11:39:05;2.85;;;0.60;;
7487;SDS011;3785;52.260;4.728;2024-01-30T11:42:25;1.70;;;0.63;;
7487;SDS011;3785;52.260;4.728;2024-01-30T11:45:46;1.65;;;0.82;;
7487;SDS011;3785;52.260;4.728;2024-01-30T11:49:07;2.03;;;0.73;;
7487;SDS011;3785;52.260;4.728;2024-01-30T11:52:27;2.53;;;0.80;;
7487;SDS011;3785;52.260;4.728;2024-01-30T11:55:51;1.83;;;0.63;;
7487;SDS011;3785;52.260;4.728;2024-01-30T11:59:13;3.20;;;1.00;;
7487;SDS011;3785;52.260;4.728;2024-01-30T12:02:34;2.22;;;0.68;;
7487;SDS011;3785;52.260;4.728;2024-01-30T12:05:58;3.17;;;1.00;;
7487;SDS011;3785;52.260;4.728;2024-01-30T12:09:19;1.95;;;0.85;;
7487;SDS011;3785;52.260;4.728;2024-01-30T12:12:41;3.25;;;1.02;;
7487;SDS011;3785;52.260;4.728;2024-01-30T12:16:02;4.40;;;1.15;;
7487;SDS011;3785;52.260;4.728;2024-01-30T12:19:24;2.50;;;0.88;;
7487;SDS011;3785;52.260;4.728;2024-01-30T12:22:45;4.22;;;0.93;;
7487;SDS011;3785;52.260;4.728;2024-01-30T12:26:07;1.75;;;0.77;;
7487;SDS011;3785;52.260;4.728;2024-01-30T12:29:31;1.88;;;0.98;;
7487;SDS011;3785;52.260;4.728;2024-01-30T12:32:52;2.97;;;0.98;;
7487;SDS011;3785;52.260;4.728;2024-01-30T12:36:13;3.78;;;1.20;;
7487;SDS011;3785;52.260;4.728;2024-01-30T12:39:34;3.83;;;1.23;;
7487;SDS011;3785;52.260;4.728;2024-01-30T12:42:55;6.22;;;1.20;;
7487;SDS011;3785;52.260;4.728;2024-01-30T12:46:16;5.35;;;0.80;;
7487;SDS011;3785;52.260;4.728;2024-01-30T12:49:37;7.35;;;1.20;;
7487;SDS011;3785;52.260;4.728;2024-01-30T12:52:58;2.55;;;0.80;;
7487;SDS011;3785;52.260;4.728;2024-01-30T12:56:18;2.60;;;0.65;;
7487;SDS011;3785;52.260;4.728;2024-01-30T12:59:39;3.30;;;1.00;;
7487;SDS011;3785;52.260;4.728;2024-01-30T13:03:00;1.67;;;1.00;;
7487;SDS011;3785;52.260;4.728;2024-01-30T13:06:20;1.73;;;1.08;;
7487;SDS011;3785;52.260;4.728;2024-01-30T13:09:41;2.45;;;0.70;;
7487;SDS011;3785;52.260;4.728;2024-01-30T13:13:02;3.20;;;1.05;;
7487;SDS011;3785;52.260;4.728;2024-01-30T13:16:22;1.00;;;0.60;;
7487;SDS011;3785;52.260;4.728;2024-01-30T13:19:43;1.92;;;1.00;;
7487;SDS011;3785;52.260;4.728;2024-01-30T13:23:04;3.78;;;0.95;;
7487;SDS011;3785;52.260;4.728;2024-01-30T13:26:24;3.08;;;1.38;;
7487;SDS011;3785;52.260;4.728;2024-01-30T13:29:45;2.15;;;1.20;;
7487;SDS011;3785;52.260;4.728;2024-01-30T13:33:05;3.75;;;1.30;;
7487;SDS011;3785;52.260;4.728;2024-01-30T13:36:26;2.20;;;1.10;;
7487;SDS011;3785;52.260;4.728;2024-01-30T13:39:47;1.35;;;1.02;;
7487;SDS011;3785;52.260;4.728;2024-01-30T13:43:07;2.60;;;1.30;;
7487;SDS011;3785;52.260;4.728;2024-01-30T13:46:28;1.42;;;0.90;;
7487;SDS011;3785;52.260;4.728;2024-01-30T13:49:49;2.28;;;1.23;;
7487;SDS011;3785;52.260;4.728;2024-01-30T13:53:10;2.58;;;1.23;;
7487;SDS011;3785;52.260;4.728;2024-01-30T13:56:31;4.10;;;1.33;;
7487;SDS011;3785;52.260;4.728;2024-01-30T13:59:51;4.35;;;1.30;;
7487;SDS011;3785;52.260;4.728;2024-01-30T14:03:12;2.38;;;1.13;;
7487;SDS011;3785;52.260;4.728;2024-01-30T14:06:33;3.10;;;1.20;;
7487;SDS011;3785;52.260;4.728;2024-01-30T14:09:53;2.67;;;1.13;;
7487;SDS011;3785;52.260;4.728;2024-01-30T14:13:14;3.15;;;1.20;;
7487;SDS011;3785;52.260;4.728;2024-01-30T14:16:34;2.53;;;1.40;;
7487;SDS011;3785;52.260;4.728;2024-01-30T14:19:55;1.77;;;1.00;;
7487;SDS011;3785;52.260;4.728;2024-01-30T14:23:17;5.45;;;1.20;;
7487;SDS011;3785;52.260;4.728;2024-01-30T14:26:38;1.52;;;1.02;;
7487;SDS011;3785;52.260;4.728;2024-01-30T14:29:58;1.98;;;0.85;;
7487;SDS011;3785;52.260;4.728;2024-01-30T14:33:19;2.83;;;1.30;;
7487;SDS011;3785;52.260;4.728;2024-01-30T14:36:39;4.28;;;0.85;;
7487;SDS011;3785;52.260;4.728;2024-01-30T14:40:00;2.08;;;0.85;;
7487;SDS011;3785;52.260;4.728;2024-01-30T14:43:21;3.40;;;0.80;;
7487;SDS011;3785;52.260;4.728;2024-01-30T14:46:42;3.40;;;1.10;;
7487;SDS011;3785;52.260;4.728;2024-01-30T14:50:02;2.22;;;1.10;;
7487;SDS011;3785;52.260;4.728;2024-01-30T14:53:24;1.27;;;0.80;;
7487;SDS011;3785;52.260;4.728;2024-01-30T14:56:44;1.23;;;0.88;;
7487;SDS011;3785;52.260;4.728;2024-01-30T15:00:05;1.42;;;0.77;;
7487;SDS011;3785;52.260;4.728;2024-01-30T15:03:27;2.78;;;1.00;;
7487;SDS011;3785;52.260;4.728;2024-01-30T15:06:49;2.20;;;1.00;;
7487;SDS011;3785;52.260;4.728;2024-01-30T15:10:09;2.15;;;1.05;;
7487;SDS011;3785;52.260;4.728;2024-01-30T15:13:30;1.67;;;0.98;;
7487;SDS011;3785;52.260;4.728;2024-01-30T15:16:51;2.67;;;0.77;;
7487;SDS011;3785;52.260;4.728;2024-01-30T15:20:11;2.78;;;0.80;;
7487;SDS011;3785;52.260;4.728;2024-01-30T15:23:32;2.22;;;0.80;;
7487;SDS011;3785;52.260;4.728;2024-01-30T15:26:53;1.73;;;1.05;;
7487;SDS011;3785;52.260;4.728;2024-01-30T15:30:13;5.03;;;1.33;;
7487;SDS011;3785;52.260;4.728;2024-01-30T15:33:34;4.07;;;1.27;;
7487;SDS011;3785;52.260;4.728;2024-01-30T15:36:55;4.78;;;1.50;;
7487;SDS011;3785;52.260;4.728;2024-01-30T15:40:15;5.72;;;1.30;;
7487;SDS011;3785;52.260;4.728;2024-01-30T15:43:36;1.95;;;0.90;;
7487;SDS011;3785;52.260;4.728;2024-01-30T15:46:57;2.88;;;1.50;;
7487;SDS011;3785;52.260;4.728;2024-01-30T15:50:18;4.53;;;1.23;;
7487;SDS011;3785;52.260;4.728;2024-01-30T15:53:39;4.70;;;1.27;;
7487;SDS011;3785;52.260;4.728;2024-01-30T15:56:59;7.43;;;1.38;;
7487;SDS011;3785;52.260;4.728;2024-01-30T16:00:20;3.40;;;0.90;;
7487;SDS011;3785;52.260;4.728;2024-01-30T16:03:40;2.38;;;1.00;;
7487;SDS011;3785;52.260;4.728;2024-01-30T16:07:01;3.17;;;1.05;;
7487;SDS011;3785;52.260;4.728;2024-01-30T16:10:22;2.17;;;0.63;;
7487;SDS011;3785;52.260;4.728;2024-01-30T16:13:42;3.70;;;1.00;;
7487;SDS011;3785;52.260;4.728;2024-01-30T16:17:03;2.53;;;1.08;;
7487;SDS011;3785;52.260;4.728;2024-01-30T16:20:24;3.72;;;1.20;;
7487;SDS011;3785;52.260;4.728;2024-01-30T16:23:44;3.28;;;1.27;;
7487;SDS011;3785;52.260;4.728;2024-01-30T16:27:05;9.25;;;1.00;;
7487;SDS011;3785;52.260;4.728;2024-01-30T16:30:26;6.20;;;0.90;;
7487;SDS011;3785;52.260;4.728;2024-01-30T16:33:46;3.10;;;0.80;;
7487;SDS011;3785;52.260;4.728;2024-01-30T16:37:10;5.53;;;1.17;;
7487;SDS011;3785;52.260;4.728;2024-01-30T16:40:31;5.75;;;1.60;;
7487;SDS011;3785;52.260;4.728;2024-01-30T16:43:53;8.35;;;1.23;;
7487;SDS011;3785;52.260;4.728;2024-01-30T16:47:14;2.08;;;0.90;;
7487;SDS011;3785;52.260;4.728;2024-01-30T16:50:35;5.03;;;1.02;;
7487;SDS011;3785;52.260;4.728;2024-01-30T16:53:55;3.47;;;1.08;;
7487;SDS011;3785;52.260;4.728;2024-01-30T16:57:16;5.95;;;1.15;;
7487;SDS011;3785;52.260;4.728;2024-01-30T17:00:37;2.75;;;0.50;;
7487;SDS011;3785;52.260;4.728;2024-01-30T17:03:58;4.82;;;0.80;;
7487;SDS011;3785;52.260;4.728;2024-01-30T17:07:18;6.85;;;1.00;;
7487;SDS011;3785;52.260;4.728;2024-01-30T17:10:39;3.63;;;0.70;;
7487;SDS011;3785;52.260;4.728;2024-01-30T17:14:00;5.13;;;1.13;;
7487;SDS011;3785;52.260;4.728;2024-01-30T17:17:20;3.83;;;1.20;;
7487;SDS011;3785;52.260;4.728;2024-01-30T17:20:41;2.97;;;1.27;;
7487;SDS011;3785;52.260;4.728;2024-01-30T17:24:02;2.20;;;0.90;;
7487;SDS011;3785;52.260;4.728;2024-01-30T17:27:22;5.28;;;1.20;;
7487;SDS011;3785;52.260;4.728;2024-01-30T17:30:43;3.70;;;0.93;;
7487;SDS011;3785;52.260;4.728;2024-01-30T17:34:04;1.63;;;0.80;;
7487;SDS011;3785;52.260;4.728;2024-01-30T17:37:24;4.43;;;0.80;;
7487;SDS011;3785;52.260;4.728;2024-01-30T17:40:45;5.57;;;1.10;;
7487;SDS011;3785;52.260;4.728;2024-01-30T17:44:05;4.53;;;0.85;;
7487;SDS011;3785;52.260;4.728;2024-01-30T17:47:26;5.82;;;0.98;;
7487;SDS011;3785;52.260;4.728;2024-01-30T17:50:47;5.47;;;0.90;;
7487;SDS011;3785;52.260;4.728;2024-01-30T17:54:07;2.95;;;0.90;;
7487;SDS011;3785;52.260;4.728;2024-01-30T17:57:28;4.55;;;1.40;;
7487;SDS011;3785;52.260;4.728;2024-01-30T18:00:49;8.55;;;2.05;;
7487;SDS011;3785;52.260;4.728;2024-01-30T18:04:09;4.15;;;0.90;;
7487;SDS011;3785;52.260;4.728;2024-01-30T18:07:30;8.43;;;1.38;;
7487;SDS011;3785;52.260;4.728;2024-01-30T18:10:51;3.53;;;1.33;;
7487;SDS011;3785;52.260;4.728;2024-01-30T18:14:12;5.10;;;1.00;;
7487;SDS011;3785;52.260;4.728;2024-01-30T18:17:33;5.05;;;1.00;;
7487;SDS011;3785;52.260;4.728;2024-01-30T18:20:53;4.65;;;1.25;;
7487;SDS011;3785;52.260;4.728;2024-01-30T18:24:14;4.05;;;1.17;;
7487;SDS011;3785;52.260;4.728;2024-01-30T18:27:34;11.82;;;1.20;;
7487;SDS011;3785;52.260;4.728;2024-01-30T18:30:55;4.35;;;1.02;;
7487;SDS011;3785;52.260;4.728;2024-01-30T18:34:16;6.32;;;1.45;;
7487;SDS011;3785;52.260;4.728;2024-01-30T18:37:37;3.83;;;1.02;;
7487;SDS011;3785;52.260;4.728;2024-01-30T18:40:58;6.97;;;1.15;;
7487;SDS011;3785;52.260;4.728;2024-01-30T18:44:18;10.38;;;1.50;;
7487;SDS011;3785;52.260;4.728;2024-01-30T18:47:39;3.67;;;0.98;;
7487;SDS011;3785;52.260;4.728;2024-01-30T18:50:59;3.55;;;1.10;;
7487;SDS011;3785;52.260;4.728;2024-01-30T18:54:20;3.17;;;0.70;;
7487;SDS011;3785;52.260;4.728;2024-01-30T18:57:41;7.97;;;1.13;;
7487;SDS011;3785;52.260;4.728;2024-01-30T19:01:03;6.20;;;1.30;;
7487;SDS011;3785;52.260;4.728;2024-01-30T19:04:24;4.95;;;0.95;;
7487;SDS011;3785;52.260;4.728;2024-01-30T19:07:44;4.40;;;0.90;;
7487;SDS011;3785;52.260;4.728;2024-01-30T19:11:19;6.68;;;1.50;;
7487;SDS011;3785;52.260;4.728;2024-01-30T19:14:39;2.22;;;0.80;;
7487;SDS011;3785;52.260;4.728;2024-01-30T19:18:00;5.43;;;0.73;;
7487;SDS011;3785;52.260;4.728;2024-01-30T19:21:21;0.80;;;0.50;;
7487;SDS011;3785;52.260;4.728;2024-01-30T19:24:41;2.50;;;0.55;;
7487;SDS011;3785;52.260;4.728;2024-01-30T19:28:02;1.10;;;0.40;;
7487;SDS011;3785;52.260;4.728;2024-01-30T19:31:23;3.90;;;0.60;;
7487;SDS011;3785;52.260;4.728;2024-01-30T19:34:43;2.60;;;0.65;;
7487;SDS011;3785;52.260;4.728;2024-01-30T19:38:04;7.97;;;0.80;;
7487;SDS011;3785;52.260;4.728;2024-01-30T19:41:25;2.28;;;0.98;;
7487;SDS011;3785;52.260;4.728;2024-01-30T19:44:45;3.97;;;1.00;;
7487;SDS011;3785;52.260;4.728;2024-01-30T19:48:06;4.68;;;1.08;;
7487;SDS011;3785;52.260;4.728;2024-01-30T19:51:27;1.42;;;0.88;;
7487;SDS011;3785;52.260;4.728;2024-01-30T19:54:49;4.70;;;1.70;;
7487;SDS011;3785;52.260;4.728;2024-01-30T19:58:09;3.97;;;0.90;;
7487;SDS011;3785;52.260;4.728;2024-01-30T20:01:30;1.95;;;1.00;;
7487;SDS011;3785;52.260;4.728;2024-01-30T20:04:50;3.28;;;1.50;;
7487;SDS011;3785;52.260;4.728;2024-01-30T20:08:11;4.05;;;0.77;;
7487;SDS011;3785;52.260;4.728;2024-01-30T20:11:33;4.25;;;1.10;;
7487;SDS011;3785;52.260;4.728;2024-01-30T20:14:54;2.00;;;1.50;;
7487;SDS011;3785;52.260;4.728;2024-01-30T20:18:14;3.13;;;1.08;;
7487;SDS011;3785;52.260;4.728;2024-01-30T20:21:35;2.95;;;0.95;;
7487;SDS011;3785;52.260;4.728;2024-01-30T20:24:58;3.30;;;0.88;;
7487;SDS011;3785;52.260;4.728;2024-01-30T20:28:19;2.78;;;0.52;;
7487;SDS011;3785;52.260;4.728;2024-01-30T20:31:39;1.35;;;0.55;;
7487;SDS011;3785;52.260;4.728;2024-01-30T20:35:00;1.88;;;0.50;;
7487;SDS011;3785;52.260;4.728;2024-01-30T20:38:22;4.50;;;0.60;;
7487;SDS011;3785;52.260;4.728;2024-01-30T20:41:42;0.82;;;0.45;;
7487;SDS011;3785;52.260;4.728;2024-01-30T20:45:04;1.70;;;0.57;;
7487;SDS011;3785;52.260;4.728;2024-01-30T20:48:25;2.45;;;0.80;;